createdAt,value
2017-10-31T00:02:21.186Z,-0.50
2017-10-31T00:04:49.528Z,-0.60
2017-10-31T00:07:17.439Z,-0.60
2017-10-31T00:09:45.049Z,-0.60
2017-10-31T00:12:12.656Z,-0.70
2017-10-31T00:14:40.257Z,-0.70
2017-10-31T00:17:07.894Z,-0.80
2017-10-31T00:19:35.477Z,-0.80
2017-10-31T00:22:03.839Z,-0.90
2017-10-31T00:24:31.486Z,-0.90
2017-10-31T00:26:59.853Z,-0.80
2017-10-31T00:29:27.413Z,-0.90
2017-10-31T00:31:54.972Z,-0.80
2017-10-31T00:34:22.542Z,-0.70
2017-10-31T00:36:50.107Z,-0.80
2017-10-31T00:39:17.672Z,-0.70
2017-10-31T00:41:45.353Z,-0.70
2017-10-31T00:44:12.921Z,-0.60
2017-10-31T00:46:40.504Z,-0.60
2017-10-31T00:49:08.055Z,-0.70
2017-10-31T00:51:35.649Z,-0.70
2017-10-31T00:54:03.975Z,-0.80
2017-10-31T00:56:31.515Z,-0.80
2017-10-31T00:58:59.102Z,-0.80
2017-10-31T01:01:26.718Z,-0.80
2017-10-31T01:03:54.245Z,-0.80
2017-10-31T01:06:21.818Z,-0.70
2017-10-31T01:08:49.376Z,-0.70
2017-10-31T01:11:16.913Z,-0.80
2017-10-31T01:13:44.492Z,-0.70
2017-10-31T01:16:12.140Z,-0.80
2017-10-31T01:18:39.703Z,-0.90
2017-10-31T01:21:07.285Z,-0.80
2017-10-31T01:23:34.870Z,-0.90
2017-10-31T01:26:02.450Z,-0.90
2017-10-31T01:28:30.033Z,-0.90
2017-10-31T01:30:58.381Z,-1.00
2017-10-31T01:33:25.954Z,-1.10
2017-10-31T01:35:54.544Z,-1.10
2017-10-31T01:38:22.136Z,-1.10
2017-10-31T01:40:49.751Z,-1.00
2017-10-31T01:43:17.328Z,-0.90
2017-10-31T01:45:44.886Z,-0.90
2017-10-31T01:48:12.509Z,-0.90
2017-10-31T01:50:40.208Z,-0.90
2017-10-31T01:53:07.810Z,-1.00
2017-10-31T01:55:35.382Z,-1.10
2017-10-31T01:58:02.965Z,-1.10
2017-10-31T02:00:31.434Z,-1.10
2017-10-31T02:02:59.082Z,-1.10
2017-10-31T02:05:26.671Z,-1.10
2017-10-31T02:07:54.675Z,-1.10
2017-10-31T02:10:22.253Z,-1.20
2017-10-31T02:12:49.873Z,-1.20
2017-10-31T02:15:18.213Z,-1.30
2017-10-31T02:17:45.806Z,-1.30
2017-10-31T02:20:13.440Z,-1.30
2017-10-31T02:22:41.022Z,-1.30
2017-10-31T02:25:08.681Z,-1.30
2017-10-31T02:27:36.307Z,-1.30
2017-10-31T02:30:04.689Z,-1.20
2017-10-31T02:32:32.259Z,-1.30
2017-10-31T02:35:00.641Z,-1.30
2017-10-31T02:37:28.255Z,-1.30
2017-10-31T02:39:55.879Z,-1.30
2017-10-31T02:42:31.288Z,-1.20
2017-10-31T02:44:59.011Z,-1.20
2017-10-31T02:47:26.701Z,-1.20
2017-10-31T02:49:55.661Z,-1.30
2017-10-31T02:52:27.052Z,-1.30
2017-10-31T02:55:02.700Z,-1.30
2017-10-31T02:57:31.100Z,-1.30
2017-10-31T02:59:58.944Z,-1.40
2017-10-31T03:02:26.735Z,-1.30
2017-10-31T03:04:54.436Z,-1.40
2017-10-31T03:07:22.857Z,-1.40
2017-10-31T03:09:50.631Z,-1.40
2017-10-31T03:12:18.956Z,-1.40
2017-10-31T03:14:47.401Z,-1.40
2017-10-31T03:17:15.119Z,-1.40
2017-10-31T03:19:42.876Z,-1.40
2017-10-31T03:22:10.585Z,-1.40
2017-10-31T03:24:38.499Z,-1.40
2017-10-31T03:27:06.356Z,-1.50
2017-10-31T03:29:33.986Z,-1.40
2017-10-31T03:32:01.622Z,-1.50
2017-10-31T03:34:38.065Z,-1.50
2017-10-31T03:37:06.523Z,-1.50
2017-10-31T03:39:34.236Z,-1.50
2017-10-31T03:42:02.630Z,-1.40
2017-10-31T03:44:31.236Z,-1.30
2017-10-31T03:47:09.799Z,-1.30
2017-10-31T03:49:37.572Z,-1.30
2017-10-31T03:52:05.175Z,-1.30
2017-10-31T03:54:34.299Z,-1.20
2017-10-31T03:57:01.948Z,-1.20
2017-10-31T03:59:30.548Z,-1.10
2017-10-31T04:01:58.212Z,-1.20
2017-10-31T04:04:26.939Z,-1.10
2017-10-31T04:06:54.569Z,-1.20
2017-10-31T04:09:22.212Z,-1.30
2017-10-31T04:11:50.779Z,-1.40
2017-10-31T04:14:18.877Z,-1.40
2017-10-31T04:16:46.598Z,-1.50
2017-10-31T04:19:15.522Z,-1.60
2017-10-31T04:21:43.997Z,-1.60
2017-10-31T04:24:11.708Z,-1.60
2017-10-31T04:26:39.588Z,-1.60
2017-10-31T04:29:07.491Z,-1.60
2017-10-31T04:31:35.131Z,-1.60
2017-10-31T04:34:03.002Z,-1.50
2017-10-31T04:36:31.015Z,-1.60
2017-10-31T04:38:58.920Z,-1.70
2017-10-31T04:41:27.399Z,-1.60
2017-10-31T04:43:55.805Z,-1.70
2017-10-31T04:46:23.443Z,-1.70
2017-10-31T04:48:51.027Z,-1.70
2017-10-31T04:51:19.416Z,-1.70
2017-10-31T04:53:47.766Z,-1.70
2017-10-31T04:56:15.402Z,-1.70
2017-10-31T04:58:43.074Z,-1.70
2017-10-31T05:01:11.090Z,-1.80
2017-10-31T05:03:40.231Z,-1.70
2017-10-31T05:06:09.115Z,-1.70
2017-10-31T05:08:37.385Z,-1.70
2017-10-31T05:11:05.394Z,-1.70
2017-10-31T05:13:33.229Z,-1.70
2017-10-31T05:16:01.682Z,-1.70
2017-10-31T05:18:29.265Z,-1.70
2017-10-31T05:20:56.864Z,-1.70
2017-10-31T05:23:24.441Z,-1.70
2017-10-31T05:25:51.999Z,-1.70
2017-10-31T05:28:19.953Z,-1.60
2017-10-31T05:30:54.205Z,-1.50
2017-10-31T05:33:23.367Z,-1.50
2017-10-31T05:35:52.027Z,-1.50
2017-10-31T05:38:19.857Z,-1.50
2017-10-31T05:40:47.493Z,-1.50
2017-10-31T05:43:15.980Z,-1.40
2017-10-31T05:45:44.338Z,-1.40
2017-10-31T05:48:11.971Z,-1.40
2017-10-31T05:50:41.171Z,-1.40
2017-10-31T05:53:08.817Z,-1.40
2017-10-31T05:55:36.587Z,-1.40
2017-10-31T05:58:04.269Z,-1.40
2017-10-31T06:00:32.625Z,-1.40
2017-10-31T06:03:00.954Z,-1.40
2017-10-31T06:05:28.623Z,-1.40
2017-10-31T06:07:56.181Z,-1.50
2017-10-31T06:10:23.786Z,-1.50
2017-10-31T06:12:52.128Z,-1.60
2017-10-31T06:15:19.956Z,-1.60
2017-10-31T06:17:47.707Z,-1.50
2017-10-31T06:20:18.248Z,-1.20
2017-10-31T06:22:52.533Z,-1.20
2017-10-31T06:25:25.701Z,-1.20
2017-10-31T06:27:59.029Z,-1.10
2017-10-31T06:30:32.252Z,-1.20
2017-10-31T06:33:00.719Z,-1.30
2017-10-31T06:35:28.323Z,-1.30
2017-10-31T06:37:55.990Z,-1.30
2017-10-31T06:40:23.602Z,-1.30
2017-10-31T06:42:51.190Z,-1.20
2017-10-31T06:45:19.565Z,-1.20
2017-10-31T06:47:48.120Z,-1.20
2017-10-31T06:50:15.814Z,-1.20
2017-10-31T06:52:44.296Z,-1.10
2017-10-31T06:55:11.947Z,-1.00
2017-10-31T06:57:39.603Z,-0.90
2017-10-31T07:00:07.300Z,-0.90
2017-10-31T07:02:34.994Z,-0.80
2017-10-31T07:05:03.402Z,-0.70
2017-10-31T07:07:31.107Z,-0.70
2017-10-31T07:09:58.785Z,-0.60
2017-10-31T07:12:26.384Z,-0.60
2017-10-31T07:14:53.965Z,-0.40
2017-10-31T07:17:21.627Z,-0.40
2017-10-31T07:19:49.354Z,-0.30
2017-10-31T07:22:18.530Z,-0.20
2017-10-31T07:24:46.117Z,0.00
2017-10-31T07:27:14.485Z,0.70
2017-10-31T07:29:42.121Z,0.70
2017-10-31T07:32:10.031Z,0.90
2017-10-31T07:34:37.614Z,1.00
2017-10-31T07:37:05.982Z,2.60
2017-10-31T07:39:34.672Z,2.60
2017-10-31T07:42:02.284Z,3.60
2017-10-31T07:44:31.003Z,4.80
2017-10-31T07:46:58.616Z,6.20
2017-10-31T07:49:26.395Z,7.30
2017-10-31T07:51:54.238Z,8.20
2017-10-31T07:54:21.815Z,9.00
2017-10-31T07:56:50.199Z,10.50
2017-10-31T07:59:18.588Z,10.80
2017-10-31T08:01:46.178Z,10.80
2017-10-31T08:04:13.767Z,11.20
2017-10-31T08:06:41.584Z,11.40
2017-10-31T08:09:09.948Z,11.40
2017-10-31T08:11:37.777Z,11.30
2017-10-31T08:14:05.349Z,11.80
2017-10-31T08:16:32.929Z,11.90
2017-10-31T08:19:00.524Z,12.10
2017-10-31T08:21:28.885Z,13.20
2017-10-31T08:23:57.490Z,13.20
2017-10-31T08:26:25.035Z,13.50
2017-10-31T08:28:52.635Z,13.20
2017-10-31T08:31:21.121Z,14.30
2017-10-31T08:33:48.836Z,14.30
2017-10-31T08:36:16.406Z,15.20
2017-10-31T08:38:44.090Z,15.40
2017-10-31T08:41:11.919Z,16.20
2017-10-31T08:43:40.785Z,17.20
2017-10-31T08:46:08.504Z,17.20
2017-10-31T08:48:36.303Z,17.60
2017-10-31T08:51:04.323Z,17.20
2017-10-31T08:53:32.985Z,17.70
2017-10-31T08:56:04.339Z,16.70
2017-10-31T08:58:32.163Z,14.90
2017-10-31T09:01:00.504Z,12.80
2017-10-31T09:03:28.139Z,11.20
2017-10-31T09:05:56.557Z,8.70
2017-10-31T09:08:24.977Z,8.20
2017-10-31T09:10:53.685Z,8.10
2017-10-31T09:13:21.299Z,7.50
2017-10-31T09:15:48.873Z,7.20
2017-10-31T09:18:16.495Z,6.60
2017-10-31T09:20:44.142Z,6.50
2017-10-31T09:23:11.766Z,6.30
2017-10-31T09:25:39.324Z,6.20
2017-10-31T09:28:07.700Z,5.90
2017-10-31T09:30:35.297Z,5.90
2017-10-31T09:33:04.384Z,6.00
2017-10-31T09:35:33.440Z,5.90
2017-10-31T09:38:04.273Z,5.70
2017-10-31T09:40:32.473Z,5.70
2017-10-31T09:43:00.051Z,5.70
2017-10-31T09:45:27.635Z,5.80
2017-10-31T09:47:55.595Z,5.90
2017-10-31T09:50:23.177Z,6.00
2017-10-31T09:52:50.731Z,6.10
2017-10-31T09:55:19.065Z,6.20
2017-10-31T09:57:46.659Z,6.20
2017-10-31T10:00:15.021Z,6.50
2017-10-31T10:02:42.610Z,6.50
2017-10-31T10:05:10.971Z,6.60
2017-10-31T10:07:39.336Z,6.80
2017-10-31T10:10:06.917Z,6.80
2017-10-31T10:12:34.518Z,7.00
2017-10-31T10:15:02.833Z,7.00
2017-10-31T10:17:30.447Z,7.00
2017-10-31T10:19:58.251Z,7.00
2017-10-31T10:22:25.837Z,7.10
2017-10-31T10:24:53.438Z,7.10
2017-10-31T10:27:21.035Z,7.10
2017-10-31T10:29:48.636Z,7.20
2017-10-31T10:32:16.211Z,7.20
2017-10-31T10:34:43.848Z,7.40
2017-10-31T10:37:11.534Z,7.40
2017-10-31T10:39:39.090Z,7.40
2017-10-31T10:42:07.676Z,7.40
2017-10-31T10:44:35.267Z,7.30
2017-10-31T10:47:02.833Z,7.50
2017-10-31T10:49:30.436Z,7.50
2017-10-31T10:51:58.849Z,7.70
2017-10-31T10:54:26.575Z,7.60
2017-10-31T10:56:54.366Z,8.00
2017-10-31T10:59:22.001Z,8.20
2017-10-31T11:01:49.621Z,8.50
2017-10-31T11:04:17.218Z,8.80
2017-10-31T11:06:44.943Z,8.80
2017-10-31T11:09:13.564Z,9.10
2017-10-31T11:11:41.137Z,9.10
2017-10-31T11:14:08.813Z,9.40
2017-10-31T11:16:36.427Z,9.70
2017-10-31T11:19:04.028Z,9.70
2017-10-31T11:21:31.801Z,10.20
2017-10-31T11:23:59.411Z,10.40
2017-10-31T11:26:27.475Z,10.50
2017-10-31T11:28:56.130Z,10.80
2017-10-31T11:31:24.159Z,11.40
2017-10-31T11:33:52.172Z,11.30
2017-10-31T11:36:20.431Z,11.50
2017-10-31T11:38:48.047Z,11.80
2017-10-31T11:41:15.644Z,12.50
2017-10-31T11:43:43.524Z,12.90
2017-10-31T11:46:11.533Z,13.70
2017-10-31T11:48:39.122Z,14.70
2017-10-31T11:51:06.864Z,15.20
2017-10-31T11:53:35.516Z,15.10
2017-10-31T11:56:04.164Z,15.30
2017-10-31T11:58:32.709Z,15.30
2017-10-31T12:01:01.529Z,15.80
2017-10-31T12:03:29.289Z,16.20
2017-10-31T12:05:57.625Z,16.60
2017-10-31T12:08:26.315Z,15.10
2017-10-31T12:10:56.381Z,14.80
2017-10-31T12:13:24.057Z,14.70
2017-10-31T12:15:52.591Z,13.40
2017-10-31T12:18:21.124Z,13.60
2017-10-31T12:20:49.126Z,13.70
2017-10-31T12:23:17.520Z,14.80
2017-10-31T12:25:45.266Z,14.80
2017-10-31T12:28:13.752Z,15.10
2017-10-31T12:30:43.274Z,15.90
2017-10-31T12:33:10.942Z,15.90
2017-10-31T12:35:38.664Z,15.90
2017-10-31T12:38:07.110Z,16.70
2017-10-31T12:40:34.683Z,16.60
2017-10-31T12:43:03.061Z,16.40
2017-10-31T12:45:31.426Z,15.00
2017-10-31T12:47:59.077Z,15.00
2017-10-31T12:50:26.680Z,14.60
2017-10-31T12:52:55.285Z,14.70
2017-10-31T12:55:23.068Z,14.70
2017-10-31T12:57:52.186Z,15.30
2017-10-31T13:00:21.730Z,16.10
2017-10-31T13:02:50.712Z,15.70
2017-10-31T13:05:19.114Z,15.60
2017-10-31T13:07:47.564Z,15.50
2017-10-31T13:10:15.193Z,15.50
2017-10-31T13:12:43.588Z,16.10
2017-10-31T13:15:11.319Z,16.10
2017-10-31T13:17:39.262Z,16.00
2017-10-31T13:20:07.033Z,16.10
2017-10-31T13:22:34.656Z,16.30
2017-10-31T13:25:02.993Z,17.10
2017-10-31T13:27:31.865Z,16.60
2017-10-31T13:30:00.805Z,16.60
2017-10-31T13:32:28.843Z,16.70
2017-10-31T13:34:56.814Z,16.10
2017-10-31T13:37:26.153Z,16.00
2017-10-31T13:39:54.288Z,15.30
2017-10-31T13:42:22.274Z,14.50
2017-10-31T13:44:49.901Z,14.70
2017-10-31T13:47:18.772Z,15.20
2017-10-31T13:49:47.514Z,14.60
2017-10-31T13:52:15.564Z,14.60
2017-10-31T13:54:43.551Z,13.40
2017-10-31T13:57:11.558Z,13.40
2017-10-31T13:59:39.572Z,13.90
2017-10-31T14:02:07.816Z,14.70
2017-10-31T14:04:37.021Z,15.10
2017-10-31T14:07:06.114Z,15.60
2017-10-31T14:09:34.718Z,15.60
2017-10-31T14:12:03.945Z,15.30
2017-10-31T14:14:31.815Z,15.30
2017-10-31T14:17:00.233Z,14.50
2017-10-31T14:19:28.995Z,14.50
2017-10-31T14:21:57.404Z,13.10
2017-10-31T14:24:25.424Z,12.00
2017-10-31T14:26:53.053Z,11.50
2017-10-31T14:29:21.079Z,11.10
2017-10-31T14:31:49.425Z,10.90
2017-10-31T14:34:17.229Z,10.60
2017-10-31T14:36:45.081Z,10.00
2017-10-31T14:39:12.972Z,9.50
2017-10-31T14:41:40.645Z,9.10
2017-10-31T14:44:08.968Z,8.50
2017-10-31T14:46:36.616Z,8.50
2017-10-31T14:49:05.053Z,8.30
2017-10-31T14:51:33.107Z,8.30
2017-10-31T14:54:01.857Z,8.90
2017-10-31T14:56:29.493Z,8.90
2017-10-31T14:58:57.103Z,9.20
2017-10-31T15:01:24.674Z,9.20
2017-10-31T15:03:52.331Z,9.30
2017-10-31T15:06:20.215Z,9.50
2017-10-31T15:08:47.872Z,9.30
2017-10-31T15:11:16.320Z,8.70
2017-10-31T15:13:45.508Z,8.30
2017-10-31T15:16:13.133Z,8.30
2017-10-31T15:18:40.734Z,7.90
2017-10-31T15:21:08.564Z,7.60
2017-10-31T15:23:36.370Z,7.30
2017-10-31T15:26:04.270Z,7.20
2017-10-31T15:28:31.933Z,6.90
2017-10-31T15:30:59.788Z,6.70
2017-10-31T15:33:27.644Z,6.60
2017-10-31T15:35:55.221Z,6.50
2017-10-31T15:38:22.820Z,6.30
2017-10-31T15:40:50.382Z,6.20
2017-10-31T15:43:17.991Z,6.00
2017-10-31T15:45:45.834Z,5.90
2017-10-31T15:48:14.207Z,5.70
2017-10-31T15:50:42.010Z,5.70
2017-10-31T15:53:09.905Z,5.60
2017-10-31T15:55:38.742Z,5.40
2017-10-31T15:58:08.123Z,4.90
2017-10-31T16:00:36.166Z,4.90
2017-10-31T16:03:04.662Z,4.70
2017-10-31T16:05:32.976Z,4.60
2017-10-31T16:08:00.636Z,4.50
2017-10-31T16:10:28.666Z,4.50
2017-10-31T16:12:56.416Z,4.40
2017-10-31T16:15:24.601Z,4.20
2017-10-31T16:17:52.972Z,3.90
2017-10-31T16:20:20.624Z,3.80
2017-10-31T16:22:48.282Z,3.70
2017-10-31T16:25:16.812Z,3.60
2017-10-31T16:27:46.375Z,3.60
2017-10-31T16:30:18.093Z,3.60
2017-10-31T16:32:45.750Z,3.40
2017-10-31T16:35:13.535Z,3.30
2017-10-31T16:37:48.439Z,3.20
2017-10-31T16:40:22.198Z,3.10
2017-10-31T16:42:56.811Z,3.10
2017-10-31T16:45:31.189Z,3.00
2017-10-31T16:47:59.789Z,2.90
2017-10-31T16:50:27.372Z,2.70
2017-10-31T16:52:54.972Z,2.70
2017-10-31T16:55:23.346Z,2.50
2017-10-31T16:57:50.988Z,2.50
2017-10-31T17:00:25.412Z,2.40
2017-10-31T17:02:53.549Z,2.40
2017-10-31T17:05:23.122Z,2.40
2017-10-31T17:07:52.778Z,2.30
2017-10-31T17:10:24.940Z,2.30
2017-10-31T17:12:53.300Z,2.20
2017-10-31T17:15:28.674Z,2.20
2017-10-31T17:17:56.295Z,2.10
2017-10-31T17:20:24.184Z,2.10
2017-10-31T17:22:52.602Z,1.90
2017-10-31T17:25:20.268Z,1.90
2017-10-31T17:27:48.399Z,1.80
2017-10-31T17:30:16.055Z,1.80
2017-10-31T17:32:44.417Z,1.70
2017-10-31T17:35:12.102Z,1.70
2017-10-31T17:37:40.145Z,1.70
2017-10-31T17:40:08.122Z,1.70
2017-10-31T17:42:35.714Z,1.60
2017-10-31T17:45:03.397Z,1.60
2017-10-31T17:47:31.077Z,1.60
2017-10-31T17:49:58.690Z,1.60
2017-10-31T17:52:36.803Z,1.60
2017-10-31T17:55:04.794Z,1.60
2017-10-31T17:57:33.700Z,1.60
2017-10-31T18:00:01.624Z,1.70
2017-10-31T18:02:29.606Z,1.70
2017-10-31T18:05:02.054Z,1.80
2017-10-31T18:07:30.548Z,1.80
2017-10-31T18:09:59.661Z,1.70
2017-10-31T18:12:28.703Z,1.70
2017-10-31T18:14:56.732Z,1.60
2017-10-31T18:17:27.193Z,1.50
2017-10-31T18:19:55.278Z,1.40
2017-10-31T18:22:25.644Z,1.30
2017-10-31T18:24:53.728Z,1.30
2017-10-31T18:27:23.116Z,1.00
2017-10-31T18:29:51.532Z,1.00
2017-10-31T18:32:20.114Z,1.00
2017-10-31T18:34:48.562Z,1.00
2017-10-31T18:37:16.311Z,0.90
2017-10-31T18:39:44.300Z,1.00
2017-10-31T18:42:13.769Z,1.00
2017-10-31T18:44:41.835Z,0.90
2017-10-31T18:47:10.390Z,0.90
2017-10-31T18:49:38.254Z,0.80
2017-10-31T18:52:08.129Z,0.80
2017-10-31T18:54:37.155Z,0.70
2017-10-31T18:57:05.309Z,0.70
2017-10-31T18:59:33.027Z,0.60
2017-10-31T19:02:02.163Z,0.60
2017-10-31T19:04:31.871Z,0.60
2017-10-31T19:07:01.164Z,0.60
2017-10-31T19:09:30.942Z,0.70
2017-10-31T19:11:59.005Z,0.60
2017-10-31T19:14:27.426Z,0.60
2017-10-31T19:16:55.766Z,0.50
2017-10-31T19:19:23.359Z,0.50
2017-10-31T19:21:54.309Z,0.50
2017-10-31T19:24:21.893Z,0.40
2017-10-31T19:26:50.223Z,0.50
2017-10-31T19:29:18.794Z,0.40
2017-10-31T19:31:47.343Z,0.30
2017-10-31T19:34:15.739Z,0.30
2017-10-31T19:36:43.479Z,0.30
2017-10-31T19:39:11.082Z,0.30
2017-10-31T19:41:38.669Z,0.30
2017-10-31T19:44:06.819Z,0.20
2017-10-31T19:46:34.438Z,0.10
2017-10-31T19:49:02.044Z,0.10
2017-10-31T19:51:29.620Z,0.10
2017-10-31T19:53:57.603Z,0.10
2017-10-31T19:56:25.479Z,0.10
2017-10-31T19:58:53.574Z,0.10
2017-10-31T20:01:21.206Z,0.00
2017-10-31T20:03:49.709Z,0.00
2017-10-31T20:06:17.491Z,0.00
2017-10-31T20:08:45.312Z,0.10
2017-10-31T20:11:13.759Z,0.20
2017-10-31T20:13:41.469Z,0.20
2017-10-31T20:16:09.934Z,0.10
2017-10-31T20:18:37.624Z,0.10
2017-10-31T20:21:05.240Z,0.00
2017-10-31T20:23:33.610Z,0.00
2017-10-31T20:26:02.038Z,0.00
2017-10-31T20:28:29.620Z,0.10
2017-10-31T20:30:57.247Z,0.10
2017-10-31T20:33:25.113Z,0.10
2017-10-31T20:35:52.699Z,0.10
2017-10-31T20:38:20.723Z,0.20
2017-10-31T20:40:48.426Z,0.20
2017-10-31T20:43:16.046Z,0.20
2017-10-31T20:45:45.903Z,0.30
2017-10-31T20:48:15.033Z,0.20
2017-10-31T20:50:44.012Z,0.20
2017-10-31T20:53:12.062Z,0.20
2017-10-31T20:58:08.215Z,0.30
2017-10-31T21:00:36.094Z,0.40
2017-10-31T21:03:06.160Z,0.30
2017-10-31T21:05:34.768Z,0.40
2017-10-31T21:08:03.880Z,0.40
2017-10-31T21:10:33.261Z,0.50
2017-10-31T21:13:03.716Z,0.50
2017-10-31T21:15:31.685Z,0.50
2017-10-31T21:17:59.864Z,0.50
2017-10-31T21:20:27.625Z,0.60
2017-10-31T21:22:55.284Z,0.70
2017-10-31T21:25:23.309Z,0.60
2017-10-31T21:27:51.970Z,0.60
2017-10-31T21:30:19.951Z,0.60
2017-10-31T21:32:48.809Z,0.60
2017-10-31T21:35:22.860Z,0.60
2017-10-31T21:38:00.672Z,0.60
2017-10-31T21:40:29.456Z,0.50
2017-10-31T21:42:57.499Z,0.50
2017-10-31T21:45:25.119Z,0.50
2017-10-31T21:47:52.728Z,0.50
2017-10-31T21:50:21.235Z,0.40
2017-10-31T21:52:48.859Z,0.40
2017-10-31T21:55:16.610Z,0.40
2017-10-31T21:57:44.217Z,0.50
2017-10-31T22:00:11.799Z,0.40
2017-10-31T22:02:39.403Z,0.40
2017-10-31T22:05:06.966Z,0.50
2017-10-31T22:07:34.580Z,0.50
2017-10-31T22:10:02.908Z,0.20
2017-10-31T22:12:31.262Z,0.20
2017-10-31T22:14:58.815Z,0.20
2017-10-31T22:17:27.253Z,0.00
2017-10-31T22:19:54.854Z,0.00
2017-10-31T22:22:23.191Z,0.00
2017-10-31T22:24:50.755Z,0.00
2017-10-31T22:27:18.382Z,0.00
2017-10-31T22:29:46.694Z,0.20
2017-10-31T22:32:14.319Z,0.20
2017-10-31T22:34:42.698Z,0.30
2017-10-31T22:37:10.311Z,0.30
2017-10-31T22:39:37.920Z,0.40
2017-10-31T22:42:06.267Z,0.50
2017-10-31T22:44:33.995Z,0.40
2017-10-31T22:47:02.368Z,0.50
2017-10-31T22:49:30.755Z,0.60
2017-10-31T22:51:59.059Z,0.60
2017-10-31T22:54:27.237Z,0.60
2017-10-31T22:56:54.930Z,0.60
2017-10-31T22:59:22.514Z,0.70
2017-10-31T23:01:50.163Z,0.70
2017-10-31T23:04:17.868Z,0.70
2017-10-31T23:06:46.223Z,0.70
2017-10-31T23:09:13.887Z,0.70
2017-10-31T23:11:41.959Z,0.80
2017-10-31T23:14:10.431Z,0.90
2017-10-31T23:16:38.206Z,0.80
2017-10-31T23:19:06.325Z,0.90
2017-10-31T23:21:35.437Z,0.90
2017-10-31T23:24:03.780Z,1.00
2017-10-31T23:26:31.584Z,1.00
2017-10-31T23:28:59.165Z,1.10
2017-10-31T23:31:26.830Z,1.20
2017-10-31T23:33:55.200Z,1.30
2017-10-31T23:36:23.576Z,1.40
2017-10-31T23:38:51.229Z,1.40
2017-10-31T23:41:18.798Z,1.50
2017-10-31T23:43:47.044Z,1.60
2017-10-31T23:46:14.703Z,1.60
2017-10-31T23:48:42.458Z,1.60
2017-10-31T23:51:10.770Z,1.70
2017-10-31T23:53:39.282Z,1.70
2017-10-31T23:56:07.906Z,1.80
2017-10-31T23:58:36.583Z,1.90
